sensor_id;sensor_type;location;lat;lon;timestamp;P1;durP1;ratioP1;P2;durP2;ratioP2
15356;SDS011;7778;48.792;9.260;2023-08-01T00:00:39;6.32;;;2.58;;
15356;SDS011;7778;48.792;9.260;2023-08-01T00:03:25;3.75;;;2.20;;
15356;SDS011;7778;48.792;9.260;2023-08-01T00:06:11;6.45;;;3.55;;
15356;SDS011;7778;48.792;9.260;2023-08-01T00:08:57;4.30;;;2.45;;
15356;SDS011;7778;48.792;9.260;2023-08-01T00:11:42;5.25;;;2.83;;
15356;SDS011;7778;48.792;9.260;2023-08-01T00:14:29;6.57;;;2.97;;
15356;SDS011;7778;48.792;9.260;2023-08-01T00:17:15;5.10;;;2.40;;
15356;SDS011;7778;48.792;9.260;2023-08-01T00:20:01;4.80;;;2.88;;
15356;SDS011;7778;48.792;9.260;2023-08-01T00:22:46;5.07;;;2.65;;
15356;SDS011;7778;48.792;9.260;2023-08-01T00:25:34;4.63;;;2.90;;
15356;SDS011;7778;48.792;9.260;2023-08-01T00:28:21;5.35;;;2.58;;
15356;SDS011;7778;48.792;9.260;2023-08-01T00:31:09;5.47;;;2.75;;
15356;SDS011;7778;48.792;9.260;2023-08-01T00:33:54;5.60;;;2.65;;
15356;SDS011;7778;48.792;9.260;2023-08-01T00:36:41;5.10;;;3.20;;
15356;SDS011;7778;48.792;9.260;2023-08-01T00:39:26;4.72;;;2.83;;
15356;SDS011;7778;48.792;9.260;2023-08-01T00:42:12;5.50;;;3.00;;
15356;SDS011;7778;48.792;9.260;2023-08-01T00:44:58;6.30;;;3.25;;
15356;SDS011;7778;48.792;9.260;2023-08-01T00:47:45;5.78;;;3.00;;
15356;SDS011;7778;48.792;9.260;2023-08-01T00:50:31;5.78;;;2.65;;
15356;SDS011;7778;48.792;9.260;2023-08-01T00:53:18;4.15;;;2.70;;
15356;SDS011;7778;48.792;9.260;2023-08-01T00:56:04;5.60;;;2.47;;
15356;SDS011;7778;48.792;9.260;2023-08-01T00:58:50;4.28;;;2.53;;
15356;SDS011;7778;48.792;9.260;2023-08-01T01:01:35;6.43;;;3.00;;
15356;SDS011;7778;48.792;9.260;2023-08-01T01:04:22;7.32;;;3.25;;
15356;SDS011;7778;48.792;9.260;2023-08-01T01:07:08;6.20;;;2.70;;
15356;SDS011;7778;48.792;9.260;2023-08-01T01:09:54;6.35;;;2.88;;
15356;SDS011;7778;48.792;9.260;2023-08-01T01:12:40;5.57;;;3.33;;
15356;SDS011;7778;48.792;9.260;2023-08-01T01:15:25;3.85;;;2.75;;
15356;SDS011;7778;48.792;9.260;2023-08-01T01:18:11;6.68;;;3.20;;
15356;SDS011;7778;48.792;9.260;2023-08-01T01:20:58;6.30;;;2.88;;
15356;SDS011;7778;48.792;9.260;2023-08-01T01:23:43;5.28;;;2.72;;
15356;SDS011;7778;48.792;9.260;2023-08-01T01:26:30;3.95;;;2.33;;
15356;SDS011;7778;48.792;9.260;2023-08-01T01:29:17;5.22;;;2.80;;
15356;SDS011;7778;48.792;9.260;2023-08-01T01:32:04;5.50;;;3.17;;
15356;SDS011;7778;48.792;9.260;2023-08-01T01:34:51;5.80;;;3.45;;
15356;SDS011;7778;48.792;9.260;2023-08-01T01:37:38;5.78;;;3.33;;
15356;SDS011;7778;48.792;9.260;2023-08-01T01:40:24;5.60;;;2.97;;
15356;SDS011;7778;48.792;9.260;2023-08-01T01:43:09;3.90;;;2.65;;
15356;SDS011;7778;48.792;9.260;2023-08-01T01:45:55;5.93;;;2.55;;
15356;SDS011;7778;48.792;9.260;2023-08-01T01:48:41;4.85;;;2.83;;
15356;SDS011;7778;48.792;9.260;2023-08-01T01:51:27;7.88;;;2.53;;
15356;SDS011;7778;48.792;9.260;2023-08-01T01:54:16;6.60;;;3.35;;
15356;SDS011;7778;48.792;9.260;2023-08-01T01:57:01;4.82;;;3.05;;
15356;SDS011;7778;48.792;9.260;2023-08-01T01:59:47;6.40;;;2.78;;
15356;SDS011;7778;48.792;9.260;2023-08-01T02:02:32;8.25;;;2.53;;
15356;SDS011;7778;48.792;9.260;2023-08-01T02:05:18;4.45;;;2.63;;
15356;SDS011;7778;48.792;9.260;2023-08-01T02:08:04;6.25;;;3.03;;
15356;SDS011;7778;48.792;9.260;2023-08-01T02:10:51;5.28;;;2.67;;
15356;SDS011;7778;48.792;9.260;2023-08-01T02:13:36;4.93;;;3.13;;
15356;SDS011;7778;48.792;9.260;2023-08-01T02:16:22;4.15;;;2.70;;
15356;SDS011;7778;48.792;9.260;2023-08-01T02:19:07;5.38;;;2.58;;
15356;SDS011;7778;48.792;9.260;2023-08-01T02:21:53;5.88;;;3.13;;
15356;SDS011;7778;48.792;9.260;2023-08-01T02:24:39;7.10;;;2.92;;
15356;SDS011;7778;48.792;9.260;2023-08-01T02:27:26;6.18;;;2.65;;
15356;SDS011;7778;48.792;9.260;2023-08-01T02:30:12;5.68;;;2.80;;
15356;SDS011;7778;48.792;9.260;2023-08-01T02:32:58;2.97;;;2.38;;
15356;SDS011;7778;48.792;9.260;2023-08-01T02:35:43;6.05;;;2.92;;
15356;SDS011;7778;48.792;9.260;2023-08-01T02:38:31;4.15;;;2.28;;
15356;SDS011;7778;48.792;9.260;2023-08-01T02:41:16;6.07;;;2.90;;
15356;SDS011;7778;48.792;9.260;2023-08-01T02:44:05;4.22;;;2.72;;
15356;SDS011;7778;48.792;9.260;2023-08-01T02:46:50;5.25;;;3.38;;
15356;SDS011;7778;48.792;9.260;2023-08-01T02:49:36;6.53;;;3.22;;
15356;SDS011;7778;48.792;9.260;2023-08-01T02:52:21;5.28;;;2.92;;
15356;SDS011;7778;48.792;9.260;2023-08-01T02:55:07;4.45;;;2.60;;
15356;SDS011;7778;48.792;9.260;2023-08-01T02:57:53;5.82;;;3.25;;
15356;SDS011;7778;48.792;9.260;2023-08-01T03:00:40;5.10;;;3.00;;
15356;SDS011;7778;48.792;9.260;2023-08-01T03:03:26;5.07;;;2.80;;
15356;SDS011;7778;48.792;9.260;2023-08-01T03:06:12;4.80;;;2.63;;
15356;SDS011;7778;48.792;9.260;2023-08-01T03:08:58;6.05;;;3.10;;
15356;SDS011;7778;48.792;9.260;2023-08-01T03:11:44;6.22;;;2.95;;
15356;SDS011;7778;48.792;9.260;2023-08-01T03:14:29;5.95;;;2.97;;
15356;SDS011;7778;48.792;9.260;2023-08-01T03:17:17;5.78;;;3.00;;
15356;SDS011;7778;48.792;9.260;2023-08-01T03:20:02;4.85;;;2.60;;
15356;SDS011;7778;48.792;9.260;2023-08-01T03:22:49;5.85;;;2.78;;
15356;SDS011;7778;48.792;9.260;2023-08-01T03:25:35;5.00;;;2.90;;
15356;SDS011;7778;48.792;9.260;2023-08-01T03:28:20;5.32;;;3.25;;
15356;SDS011;7778;48.792;9.260;2023-08-01T03:31:07;5.88;;;3.00;;
15356;SDS011;7778;48.792;9.260;2023-08-01T03:33:53;5.82;;;2.75;;
15356;SDS011;7778;48.792;9.260;2023-08-01T03:36:42;3.58;;;2.60;;
15356;SDS011;7778;48.792;9.260;2023-08-01T03:39:27;5.45;;;2.85;;
15356;SDS011;7778;48.792;9.260;2023-08-01T03:42:13;8.32;;;3.20;;
15356;SDS011;7778;48.792;9.260;2023-08-01T03:44:59;4.30;;;2.10;;
15356;SDS011;7778;48.792;9.260;2023-08-01T03:47:44;3.75;;;2.90;;
15356;SDS011;7778;48.792;9.260;2023-08-01T03:50:31;6.10;;;3.13;;
15356;SDS011;7778;48.792;9.260;2023-08-01T03:53:16;5.50;;;2.90;;
15356;SDS011;7778;48.792;9.260;2023-08-01T03:56:02;6.60;;;3.05;;
15356;SDS011;7778;48.792;9.260;2023-08-01T03:58:48;6.60;;;3.05;;
15356;SDS011;7778;48.792;9.260;2023-08-01T04:01:34;4.97;;;3.00;;
15356;SDS011;7778;48.792;9.260;2023-08-01T04:04:19;7.07;;;2.60;;
15356;SDS011;7778;48.792;9.260;2023-08-01T04:07:06;5.05;;;2.58;;
15356;SDS011;7778;48.792;9.260;2023-08-01T04:09:52;4.88;;;3.35;;
15356;SDS011;7778;48.792;9.260;2023-08-01T04:12:38;6.57;;;3.80;;
15356;SDS011;7778;48.792;9.260;2023-08-01T04:15:23;4.50;;;2.88;;
15356;SDS011;7778;48.792;9.260;2023-08-01T04:18:09;11.07;;;2.60;;
15356;SDS011;7778;48.792;9.260;2023-08-01T04:20:54;6.38;;;2.88;;
15356;SDS011;7778;48.792;9.260;2023-08-01T04:23:41;5.82;;;2.50;;
15356;SDS011;7778;48.792;9.260;2023-08-01T04:26:27;5.45;;;2.58;;
15356;SDS011;7778;48.792;9.260;2023-08-01T04:29:12;4.22;;;2.30;;
15356;SDS011;7778;48.792;9.260;2023-08-01T04:31:59;3.33;;;2.25;;
15356;SDS011;7778;48.792;9.260;2023-08-01T04:34:44;4.95;;;2.95;;
15356;SDS011;7778;48.792;9.260;2023-08-01T04:37:30;5.45;;;2.92;;
15356;SDS011;7778;48.792;9.260;2023-08-01T04:40:17;4.35;;;2.45;;
15356;SDS011;7778;48.792;9.260;2023-08-01T04:43:03;3.35;;;2.25;;
15356;SDS011;7778;48.792;9.260;2023-08-01T04:45:48;6.25;;;3.00;;
15356;SDS011;7778;48.792;9.260;2023-08-01T04:48:34;6.57;;;2.67;;
15356;SDS011;7778;48.792;9.260;2023-08-01T04:51:19;6.07;;;2.90;;
15356;SDS011;7778;48.792;9.260;2023-08-01T04:54:05;8.35;;;3.00;;
15356;SDS011;7778;48.792;9.260;2023-08-01T04:56:52;4.97;;;2.78;;
15356;SDS011;7778;48.792;9.260;2023-08-01T04:59:37;4.47;;;2.72;;
15356;SDS011;7778;48.792;9.260;2023-08-01T05:02:23;3.50;;;2.20;;
15356;SDS011;7778;48.792;9.260;2023-08-01T05:05:08;3.38;;;2.33;;
15356;SDS011;7778;48.792;9.260;2023-08-01T05:07:54;4.32;;;2.13;;
15356;SDS011;7778;48.792;9.260;2023-08-01T05:10:39;3.85;;;2.35;;
15356;SDS011;7778;48.792;9.260;2023-08-01T05:13:26;6.18;;;2.85;;
15356;SDS011;7778;48.792;9.260;2023-08-01T05:16:12;6.00;;;2.67;;
15356;SDS011;7778;48.792;9.260;2023-08-01T05:18:57;6.72;;;2.83;;
15356;SDS011;7778;48.792;9.260;2023-08-01T05:21:43;4.78;;;2.53;;
15356;SDS011;7778;48.792;9.260;2023-08-01T05:24:30;6.75;;;4.25;;
15356;SDS011;7778;48.792;9.260;2023-08-01T05:27:16;4.03;;;2.13;;
15356;SDS011;7778;48.792;9.260;2023-08-01T05:30:03;2.97;;;2.22;;
15356;SDS011;7778;48.792;9.260;2023-08-01T05:32:50;4.65;;;2.08;;
15356;SDS011;7778;48.792;9.260;2023-08-01T05:35:35;5.75;;;2.63;;
15356;SDS011;7778;48.792;9.260;2023-08-01T05:38:21;4.05;;;2.30;;
15356;SDS011;7778;48.792;9.260;2023-08-01T05:41:06;6.13;;;2.53;;
15356;SDS011;7778;48.792;9.260;2023-08-01T05:43:52;4.00;;;2.10;;
15356;SDS011;7778;48.792;9.260;2023-08-01T05:46:39;4.90;;;2.10;;
15356;SDS011;7778;48.792;9.260;2023-08-01T05:49:25;3.92;;;2.40;;
15356;SDS011;7778;48.792;9.260;2023-08-01T05:52:12;3.10;;;1.90;;
15356;SDS011;7778;48.792;9.260;2023-08-01T05:54:57;4.15;;;2.30;;
15356;SDS011;7778;48.792;9.260;2023-08-01T05:57:43;4.03;;;2.03;;
15356;SDS011;7778;48.792;9.260;2023-08-01T06:00:28;5.75;;;2.80;;
15356;SDS011;7778;48.792;9.260;2023-08-01T06:03:15;4.05;;;2.58;;
15356;SDS011;7778;48.792;9.260;2023-08-01T06:06:01;4.28;;;2.65;;
15356;SDS011;7778;48.792;9.260;2023-08-01T06:08:47;4.43;;;2.55;;
15356;SDS011;7778;48.792;9.260;2023-08-01T06:11:33;6.07;;;2.47;;
15356;SDS011;7778;48.792;9.260;2023-08-01T06:14:18;5.20;;;3.30;;
15356;SDS011;7778;48.792;9.260;2023-08-01T06:17:04;5.60;;;2.75;;
15356;SDS011;7778;48.792;9.260;2023-08-01T06:19:52;6.75;;;2.95;;
15356;SDS011;7778;48.792;9.260;2023-08-01T06:22:38;4.85;;;2.65;;
15356;SDS011;7778;48.792;9.260;2023-08-01T06:25:25;6.18;;;3.15;;
15356;SDS011;7778;48.792;9.260;2023-08-01T06:28:10;5.43;;;3.13;;
15356;SDS011;7778;48.792;9.260;2023-08-01T06:30:56;4.72;;;3.00;;
15356;SDS011;7778;48.792;9.260;2023-08-01T06:33:41;10.25;;;3.15;;
15356;SDS011;7778;48.792;9.260;2023-08-01T06:36:28;7.38;;;3.67;;
15356;SDS011;7778;48.792;9.260;2023-08-01T06:39:16;9.55;;;3.70;;
15356;SDS011;7778;48.792;9.260;2023-08-01T06:42:01;6.03;;;3.05;;
15356;SDS011;7778;48.792;9.260;2023-08-01T06:44:48;7.03;;;3.38;;
15356;SDS011;7778;48.792;9.260;2023-08-01T06:47:33;8.57;;;3.75;;
15356;SDS011;7778;48.792;9.260;2023-08-01T06:50:19;7.43;;;3.47;;
15356;SDS011;7778;48.792;9.260;2023-08-01T06:53:06;8.27;;;4.07;;
15356;SDS011;7778;48.792;9.260;2023-08-01T06:55:52;7.68;;;4.32;;
15356;SDS011;7778;48.792;9.260;2023-08-01T06:58:37;5.68;;;3.35;;
15356;SDS011;7778;48.792;9.260;2023-08-01T07:01:23;8.73;;;4.22;;
15356;SDS011;7778;48.792;9.260;2023-08-01T07:04:11;8.65;;;4.15;;
15356;SDS011;7778;48.792;9.260;2023-08-01T07:06:57;9.05;;;4.40;;
15356;SDS011;7778;48.792;9.260;2023-08-01T07:09:44;8.10;;;4.22;;
15356;SDS011;7778;48.792;9.260;2023-08-01T07:12:29;8.32;;;3.97;;
15356;SDS011;7778;48.792;9.260;2023-08-01T07:15:15;8.57;;;4.47;;
15356;SDS011;7778;48.792;9.260;2023-08-01T07:18:01;8.48;;;4.47;;
15356;SDS011;7778;48.792;9.260;2023-08-01T07:20:47;8.93;;;4.07;;
15356;SDS011;7778;48.792;9.260;2023-08-01T07:23:33;7.32;;;4.32;;
15356;SDS011;7778;48.792;9.260;2023-08-01T07:26:21;7.32;;;4.32;;
15356;SDS011;7778;48.792;9.260;2023-08-01T07:29:06;7.28;;;3.95;;
15356;SDS011;7778;48.792;9.260;2023-08-01T07:31:54;8.27;;;4.00;;
15356;SDS011;7778;48.792;9.260;2023-08-01T07:34:39;7.00;;;3.90;;
15356;SDS011;7778;48.792;9.260;2023-08-01T07:37:25;8.73;;;4.55;;
15356;SDS011;7778;48.792;9.260;2023-08-01T07:40:12;7.30;;;3.45;;
15356;SDS011;7778;48.792;9.260;2023-08-01T07:42:58;7.88;;;3.72;;
15356;SDS011;7778;48.792;9.260;2023-08-01T07:45:44;7.20;;;3.85;;
15356;SDS011;7778;48.792;9.260;2023-08-01T07:48:34;9.45;;;4.30;;
15356;SDS011;7778;48.792;9.260;2023-08-01T07:51:19;7.13;;;3.78;;
15356;SDS011;7778;48.792;9.260;2023-08-01T07:54:05;7.85;;;3.55;;
15356;SDS011;7778;48.792;9.260;2023-08-01T07:56:50;6.63;;;3.55;;
15356;SDS011;7778;48.792;9.260;2023-08-01T07:59:37;8.18;;;3.80;;
15356;SDS011;7778;48.792;9.260;2023-08-01T08:02:23;7.00;;;3.25;;
15356;SDS011;7778;48.792;9.260;2023-08-01T08:05:08;6.93;;;2.95;;
15356;SDS011;7778;48.792;9.260;2023-08-01T08:07:54;5.15;;;3.30;;
15356;SDS011;7778;48.792;9.260;2023-08-01T08:10:39;5.47;;;3.00;;
15356;SDS011;7778;48.792;9.260;2023-08-01T08:13:25;5.47;;;2.65;;
15356;SDS011;7778;48.792;9.260;2023-08-01T08:16:12;4.75;;;2.80;;
15356;SDS011;7778;48.792;9.260;2023-08-01T08:18:58;3.70;;;2.17;;
15356;SDS011;7778;48.792;9.260;2023-08-01T08:21:43;3.97;;;2.88;;
15356;SDS011;7778;48.792;9.260;2023-08-01T08:24:29;4.93;;;2.60;;
15356;SDS011;7778;48.792;9.260;2023-08-01T08:27:14;7.53;;;3.15;;
15356;SDS011;7778;48.792;9.260;2023-08-01T08:30:00;8.30;;;2.75;;
15356;SDS011;7778;48.792;9.260;2023-08-01T08:32:47;4.38;;;2.25;;
15356;SDS011;7778;48.792;9.260;2023-08-01T08:35:33;4.00;;;2.42;;
15356;SDS011;7778;48.792;9.260;2023-08-01T08:38:19;4.85;;;2.67;;
15356;SDS011;7778;48.792;9.260;2023-08-01T08:41:08;3.67;;;2.33;;
15356;SDS011;7778;48.792;9.260;2023-08-01T08:43:56;4.93;;;2.45;;
15356;SDS011;7778;48.792;9.260;2023-08-01T08:46:43;7.10;;;3.28;;
15356;SDS011;7778;48.792;9.260;2023-08-01T08:49:31;5.10;;;2.40;;
15356;SDS011;7778;48.792;9.260;2023-08-01T08:52:17;4.80;;;2.65;;
15356;SDS011;7778;48.792;9.260;2023-08-01T08:55:04;2.80;;;1.83;;
15356;SDS011;7778;48.792;9.260;2023-08-01T08:57:52;3.85;;;1.77;;
15356;SDS011;7778;48.792;9.260;2023-08-01T09:00:38;7.07;;;2.95;;
15356;SDS011;7778;48.792;9.260;2023-08-01T09:03:24;3.55;;;2.20;;
15356;SDS011;7778;48.792;9.260;2023-08-01T09:06:13;6.05;;;2.53;;
15356;SDS011;7778;48.792;9.260;2023-08-01T09:09:02;4.25;;;2.25;;
15356;SDS011;7778;48.792;9.260;2023-08-01T09:11:54;5.68;;;2.25;;
15356;SDS011;7778;48.792;9.260;2023-08-01T09:14:40;3.47;;;2.20;;
15356;SDS011;7778;48.792;9.260;2023-08-01T09:17:26;3.25;;;2.08;;
15356;SDS011;7778;48.792;9.260;2023-08-01T09:20:12;3.80;;;2.40;;
15356;SDS011;7778;48.792;9.260;2023-08-01T09:22:59;3.47;;;2.17;;
15356;SDS011;7778;48.792;9.260;2023-08-01T09:25:45;4.88;;;2.70;;
15356;SDS011;7778;48.792;9.260;2023-08-01T09:28:30;3.33;;;2.13;;
15356;SDS011;7778;48.792;9.260;2023-08-01T09:31:25;4.57;;;2.50;;
15356;SDS011;7778;48.792;9.260;2023-08-01T09:34:18;2.28;;;1.83;;
15356;SDS011;7778;48.792;9.260;2023-08-01T09:37:07;2.65;;;1.88;;
15356;SDS011;7778;48.792;9.260;2023-08-01T09:39:55;4.57;;;2.20;;
15356;SDS011;7778;48.792;9.260;2023-08-01T09:42:42;1.60;;;1.50;;
15356;SDS011;7778;48.792;9.260;2023-08-01T09:45:30;2.70;;;1.98;;
15356;SDS011;7778;48.792;9.260;2023-08-01T09:48:20;3.65;;;1.63;;
15356;SDS011;7778;48.792;9.260;2023-08-01T09:51:10;2.70;;;1.83;;
15356;SDS011;7778;48.792;9.260;2023-08-01T09:53:57;2.65;;;1.58;;
15356;SDS011;7778;48.792;9.260;2023-08-01T09:56:44;2.00;;;1.25;;
15356;SDS011;7778;48.792;9.260;2023-08-01T09:59:32;4.30;;;1.90;;
15356;SDS011;7778;48.792;9.260;2023-08-01T10:02:19;2.63;;;1.42;;
15356;SDS011;7778;48.792;9.260;2023-08-01T10:05:09;1.67;;;1.40;;
15356;SDS011;7778;48.792;9.260;2023-08-01T10:07:56;3.97;;;1.35;;
15356;SDS011;7778;48.792;9.260;2023-08-01T10:10:45;1.17;;;1.02;;
15356;SDS011;7778;48.792;9.260;2023-08-01T10:13:33;1.50;;;1.10;;
15356;SDS011;7778;48.792;9.260;2023-08-01T10:16:20;2.08;;;0.95;;
15356;SDS011;7778;48.792;9.260;2023-08-01T10:19:06;1.23;;;0.88;;
15356;SDS011;7778;48.792;9.260;2023-08-01T10:21:56;2.88;;;1.00;;
15356;SDS011;7778;48.792;9.260;2023-08-01T10:24:42;0.85;;;0.70;;
15356;SDS011;7778;48.792;9.260;2023-08-01T10:27:28;1.40;;;1.13;;
15356;SDS011;7778;48.792;9.260;2023-08-01T10:30:25;1.13;;;0.93;;
15356;SDS011;7778;48.792;9.260;2023-08-01T10:33:11;2.83;;;0.90;;
15356;SDS011;7778;48.792;9.260;2023-08-01T10:35:59;2.15;;;0.85;;
15356;SDS011;7778;48.792;9.260;2023-08-01T10:38:45;0.98;;;0.80;;
15356;SDS011;7778;48.792;9.260;2023-08-01T10:41:35;1.08;;;0.80;;
15356;SDS011;7778;48.792;9.260;2023-08-01T10:44:21;1.25;;;0.80;;
15356;SDS011;7778;48.792;9.260;2023-08-01T10:47:08;0.70;;;0.70;;
15356;SDS011;7778;48.792;9.260;2023-08-01T10:49:54;0.60;;;0.57;;
15356;SDS011;7778;48.792;9.260;2023-08-01T10:52:39;0.90;;;0.43;;
15356;SDS011;7778;48.792;9.260;2023-08-01T10:55:26;1.55;;;0.80;;
15356;SDS011;7778;48.792;9.260;2023-08-01T10:58:12;0.60;;;0.45;;
15356;SDS011;7778;48.792;9.260;2023-08-01T11:00:58;1.02;;;0.50;;
15356;SDS011;7778;48.792;9.260;2023-08-01T11:03:46;2.35;;;0.90;;
15356;SDS011;7778;48.792;9.260;2023-08-01T11:06:41;0.73;;;0.68;;
15356;SDS011;7778;48.792;9.260;2023-08-01T11:09:29;0.98;;;0.60;;
15356;SDS011;7778;48.792;9.260;2023-08-01T11:12:15;1.05;;;0.80;;
15356;SDS011;7778;48.792;9.260;2023-08-01T11:15:00;1.40;;;0.73;;
15356;SDS011;7778;48.792;9.260;2023-08-01T11:17:48;1.05;;;0.52;;
15356;SDS011;7778;48.792;9.260;2023-08-01T11:20:38;0.65;;;0.65;;
15356;SDS011;7778;48.792;9.260;2023-08-01T11:23:28;0.90;;;0.52;;
15356;SDS011;7778;48.792;9.260;2023-08-01T11:26:15;0.57;;;0.57;;
15356;SDS011;7778;48.792;9.260;2023-08-01T11:29:01;1.75;;;0.68;;
15356;SDS011;7778;48.792;9.260;2023-08-01T11:31:54;0.90;;;0.75;;
15356;SDS011;7778;48.792;9.260;2023-08-01T11:34:41;0.70;;;0.70;;
15356;SDS011;7778;48.792;9.260;2023-08-01T11:37:29;0.30;;;0.30;;
15356;SDS011;7778;48.792;9.260;2023-08-01T11:40:15;0.55;;;0.50;;
15356;SDS011;7778;48.792;9.260;2023-08-01T11:43:01;1.25;;;0.88;;
15356;SDS011;7778;48.792;9.260;2023-08-01T11:45:50;1.10;;;0.77;;
15356;SDS011;7778;48.792;9.260;2023-08-01T11:48:38;1.17;;;0.90;;
15356;SDS011;7778;48.792;9.260;2023-08-01T11:51:23;1.40;;;0.80;;
15356;SDS011;7778;48.792;9.260;2023-08-01T11:54:11;1.10;;;1.00;;
15356;SDS011;7778;48.792;9.260;2023-08-01T11:57:00;1.33;;;0.70;;
15356;SDS011;7778;48.792;9.260;2023-08-01T11:59:46;0.90;;;0.43;;
15356;SDS011;7778;48.792;9.260;2023-08-01T12:02:33;3.33;;;1.13;;
15356;SDS011;7778;48.792;9.260;2023-08-01T12:05:22;5.68;;;1.30;;
15356;SDS011;7778;48.792;9.260;2023-08-01T12:08:09;0.98;;;0.73;;
15356;SDS011;7778;48.792;9.260;2023-08-01T12:10:58;2.83;;;1.20;;
15356;SDS011;7778;48.792;9.260;2023-08-01T12:13:43;1.60;;;1.00;;
15356;SDS011;7778;48.792;9.260;2023-08-01T12:16:29;1.60;;;0.80;;
15356;SDS011;7778;48.792;9.260;2023-08-01T12:19:16;1.08;;;0.77;;
15356;SDS011;7778;48.792;9.260;2023-08-01T12:22:03;2.78;;;1.05;;
15356;SDS011;7778;48.792;9.260;2023-08-01T12:24:49;2.28;;;1.08;;
15356;SDS011;7778;48.792;9.260;2023-08-01T12:27:36;1.15;;;0.95;;
15356;SDS011;7778;48.792;9.260;2023-08-01T12:30:22;1.83;;;1.02;;
15356;SDS011;7778;48.792;9.260;2023-08-01T12:33:07;2.25;;;1.10;;
15356;SDS011;7778;48.792;9.260;2023-08-01T12:35:53;3.08;;;1.10;;
15356;SDS011;7778;48.792;9.260;2023-08-01T12:38:39;2.28;;;1.15;;
15356;SDS011;7778;48.792;9.260;2023-08-01T12:41:25;1.65;;;0.85;;
15356;SDS011;7778;48.792;9.260;2023-08-01T12:44:12;1.02;;;0.80;;
15356;SDS011;7778;48.792;9.260;2023-08-01T12:46:59;1.88;;;1.08;;
15356;SDS011;7778;48.792;9.260;2023-08-01T12:49:45;1.38;;;0.95;;
15356;SDS011;7778;48.792;9.260;2023-08-01T12:52:33;1.67;;;0.95;;
15356;SDS011;7778;48.792;9.260;2023-08-01T12:55:19;0.98;;;0.60;;
15356;SDS011;7778;48.792;9.260;2023-08-01T12:58:05;1.05;;;0.82;;
15356;SDS011;7778;48.792;9.260;2023-08-01T13:00:53;1.90;;;0.88;;
15356;SDS011;7778;48.792;9.260;2023-08-01T13:03:39;0.75;;;0.75;;
15356;SDS011;7778;48.792;9.260;2023-08-01T13:06:24;1.08;;;0.50;;
15356;SDS011;7778;48.792;9.260;2023-08-01T13:09:10;1.65;;;1.00;;
15356;SDS011;7778;48.792;9.260;2023-08-01T13:11:56;1.85;;;1.10;;
15356;SDS011;7778;48.792;9.260;2023-08-01T13:14:43;0.77;;;0.77;;
15356;SDS011;7778;48.792;9.260;2023-08-01T13:17:30;2.28;;;1.10;;
15356;SDS011;7778;48.792;9.260;2023-08-01T13:20:16;3.50;;;1.08;;
15356;SDS011;7778;48.792;9.260;2023-08-01T13:23:02;1.08;;;0.95;;
15356;SDS011;7778;48.792;9.260;2023-08-01T13:25:48;5.35;;;1.58;;
15356;SDS011;7778;48.792;9.260;2023-08-01T13:28:34;1.20;;;1.10;;
15356;SDS011;7778;48.792;9.260;2023-08-01T13:31:19;2.00;;;1.10;;
15356;SDS011;7778;48.792;9.260;2023-08-01T13:34:06;1.75;;;1.08;;
15356;SDS011;7778;48.792;9.260;2023-08-01T13:36:52;1.45;;;0.98;;
15356;SDS011;7778;48.792;9.260;2023-08-01T13:39:38;2.03;;;0.98;;
15356;SDS011;7778;48.792;9.260;2023-08-01T13:42:24;2.42;;;1.48;;
15356;SDS011;7778;48.792;9.260;2023-08-01T13:45:09;1.73;;;1.15;;
15356;SDS011;7778;48.792;9.260;2023-08-01T13:47:55;1.85;;;1.10;;
15356;SDS011;7778;48.792;9.260;2023-08-01T13:50:42;2.83;;;1.10;;
15356;SDS011;7778;48.792;9.260;2023-08-01T13:53:27;1.00;;;0.90;;
15356;SDS011;7778;48.792;9.260;2023-08-01T13:56:13;0.88;;;0.80;;
15356;SDS011;7778;48.792;9.260;2023-08-01T13:58:58;2.20;;;1.10;;
15356;SDS011;7778;48.792;9.260;2023-08-01T14:01:44;2.15;;;1.30;;
15356;SDS011;7778;48.792;9.260;2023-08-01T14:04:30;1.10;;;0.93;;
15356;SDS011;7778;48.792;9.260;2023-08-01T14:07:17;2.40;;;1.25;;
15356;SDS011;7778;48.792;9.260;2023-08-01T14:10:03;2.78;;;1.02;;
15356;SDS011;7778;48.792;9.260;2023-08-01T14:12:50;1.73;;;1.20;;
15356;SDS011;7778;48.792;9.260;2023-08-01T14:15:36;2.85;;;1.40;;
15356;SDS011;7778;48.792;9.260;2023-08-01T14:18:22;2.20;;;1.10;;
15356;SDS011;7778;48.792;9.260;2023-08-01T14:21:08;1.45;;;1.33;;
15356;SDS011;7778;48.792;9.260;2023-08-01T14:23:55;3.03;;;1.38;;
15356;SDS011;7778;48.792;9.260;2023-08-01T14:26:40;1.40;;;1.00;;
15356;SDS011;7778;48.792;9.260;2023-08-01T14:29:26;3.42;;;1.17;;
15356;SDS011;7778;48.792;9.260;2023-08-01T14:32:12;2.60;;;0.90;;
15356;SDS011;7778;48.792;9.260;2023-08-01T14:34:58;2.63;;;1.10;;
15356;SDS011;7778;48.792;9.260;2023-08-01T14:37:43;2.05;;;1.20;;
15356;SDS011;7778;48.792;9.260;2023-08-01T14:40:34;2.80;;;1.23;;
15356;SDS011;7778;48.792;9.260;2023-08-01T14:43:20;3.47;;;0.98;;
15356;SDS011;7778;48.792;9.260;2023-08-01T14:46:06;3.28;;;1.30;;
15356;SDS011;7778;48.792;9.260;2023-08-01T14:48:52;1.95;;;0.93;;
15356;SDS011;7778;48.792;9.260;2023-08-01T14:51:37;1.65;;;1.20;;
15356;SDS011;7778;48.792;9.260;2023-08-01T14:54:23;2.03;;;1.00;;
15356;SDS011;7778;48.792;9.260;2023-08-01T14:57:11;1.92;;;1.02;;
15356;SDS011;7778;48.792;9.260;2023-08-01T14:59:57;2.28;;;1.20;;
15356;SDS011;7778;48.792;9.260;2023-08-01T15:02:43;1.35;;;1.05;;
15356;SDS011;7778;48.792;9.260;2023-08-01T15:05:29;1.77;;;0.75;;
15356;SDS011;7778;48.792;9.260;2023-08-01T15:08:15;1.95;;;1.17;;
15356;SDS011;7778;48.792;9.260;2023-08-01T15:11:02;2.03;;;1.10;;
15356;SDS011;7778;48.792;9.260;2023-08-01T15:13:51;1.33;;;0.93;;
15356;SDS011;7778;48.792;9.260;2023-08-01T15:16:36;2.47;;;1.33;;
15356;SDS011;7778;48.792;9.260;2023-08-01T15:19:23;1.23;;;0.95;;
15356;SDS011;7778;48.792;9.260;2023-08-01T15:22:09;3.67;;;1.20;;
15356;SDS011;7778;48.792;9.260;2023-08-01T15:24:55;2.22;;;1.13;;
15356;SDS011;7778;48.792;9.260;2023-08-01T15:27:40;3.38;;;1.27;;
15356;SDS011;7778;48.792;9.260;2023-08-01T15:30:27;1.23;;;1.13;;
15356;SDS011;7778;48.792;9.260;2023-08-01T15:33:13;1.73;;;1.13;;
15356;SDS011;7778;48.792;9.260;2023-08-01T15:36:00;2.22;;;1.00;;
15356;SDS011;7778;48.792;9.260;2023-08-01T15:38:47;3.22;;;1.05;;
15356;SDS011;7778;48.792;9.260;2023-08-01T15:41:33;1.00;;;0.80;;
15356;SDS011;7778;48.792;9.260;2023-08-01T15:44:18;2.70;;;1.08;;
15356;SDS011;7778;48.792;9.260;2023-08-01T15:47:05;1.10;;;0.90;;
15356;SDS011;7778;48.792;9.260;2023-08-01T15:49:51;0.90;;;0.80;;
15356;SDS011;7778;48.792;9.260;2023-08-01T15:52:37;1.48;;;1.20;;
15356;SDS011;7778;48.792;9.260;2023-08-01T15:55:23;2.78;;;1.30;;
15356;SDS011;7778;48.792;9.260;2023-08-01T15:58:08;1.27;;;1.17;;
15356;SDS011;7778;48.792;9.260;2023-08-01T16:00:54;1.05;;;0.85;;
15356;SDS011;7778;48.792;9.260;2023-08-01T16:03:42;1.52;;;1.20;;
15356;SDS011;7778;48.792;9.260;2023-08-01T16:06:29;1.05;;;0.90;;
15356;SDS011;7778;48.792;9.260;2023-08-01T16:09:14;1.00;;;0.80;;
15356;SDS011;7778;48.792;9.260;2023-08-01T16:12:00;1.90;;;1.10;;
15356;SDS011;7778;48.792;9.260;2023-08-01T16:14:45;1.40;;;0.90;;
15356;SDS011;7778;48.792;9.260;2023-08-01T16:17:31;1.42;;;1.13;;
15356;SDS011;7778;48.792;9.260;2023-08-01T16:20:18;2.80;;;1.35;;
15356;SDS011;7778;48.792;9.260;2023-08-01T16:23:03;1.50;;;1.23;;
15356;SDS011;7778;48.792;9.260;2023-08-01T16:25:50;1.08;;;0.95;;
15356;SDS011;7778;48.792;9.260;2023-08-01T16:28:35;2.45;;;1.10;;
15356;SDS011;7778;48.792;9.260;2023-08-01T16:31:21;1.80;;;1.05;;
15356;SDS011;7778;48.792;9.260;2023-08-01T16:34:06;1.75;;;1.00;;
15356;SDS011;7778;48.792;9.260;2023-08-01T16:36:53;2.75;;;0.95;;
15356;SDS011;7778;48.792;9.260;2023-08-01T16:39:39;2.05;;;1.30;;
15356;SDS011;7778;48.792;9.260;2023-08-01T16:42:26;1.92;;;0.98;;
15356;SDS011;7778;48.792;9.260;2023-08-01T16:45:12;1.40;;;1.02;;
15356;SDS011;7778;48.792;9.260;2023-08-01T16:47:58;2.55;;;1.15;;
15356;SDS011;7778;48.792;9.260;2023-08-01T16:50:44;2.30;;;1.38;;
15356;SDS011;7778;48.792;9.260;2023-08-01T16:53:31;1.55;;;1.08;;
15356;SDS011;7778;48.792;9.260;2023-08-01T16:56:17;4.50;;;1.10;;